Time;durP1;ratioP1;P1;durP2;ratioP2;P2;SDS_P1;SDS_P2;PMS_P1;PMS_P2;Temp;Humidity;BMP_temperature;BMP_pressure;BME280_temperature;BME280_humidity;BME280_pressure;Samples;Min_cycle;Max_cycle;Signal;HPM_P1;HPM_P2
2022/09/29 00:00:39;;;;;;;;;;;;;;;;;;5046016;28;19913;-74
2022/09/29 00:03:05;;;;;;;;;;;;;;;;;;5043162;28;20279;-75
2022/09/29 00:05:33;;;;;;;;;;;;;;;;;;5038893;28;19919;-74
2022/09/29 00:07:58;;;;;;;;;;;;;;;;;;5051143;28;19952;-74
2022/09/29 00:10:24;;;;;;;;;;;;;;;;;;5026760;28;19963;-74
2022/09/29 00:12:49;;;;;;;;;;;;;;;;;;5046371;28;20307;-75
2022/09/29 00:15:14;;;;;;;;;;;;;;;;;;5026969;28;20035;-73
2022/09/29 00:17:40;;;;;;;;;;;;;;;;;;5038514;28;20028;-76
2022/09/29 00:20:05;;;;;;;;;;;;;;;;;;5049071;28;19924;-74
2022/09/29 00:22:30;;;;;;;;;;;;;;;;;;5044976;28;19971;-75
2022/09/29 00:24:56;;;;;;;;;;;;;;;;;;5044077;28;20007;-74
2022/09/29 00:27:21;;;;;;;;;;;;;;;;;;5035557;28;19963;-74
2022/09/29 00:29:47;;;;;;;;;;;;;;;;;;5040226;28;19913;-75
2022/09/29 00:32:12;;;;;;;;;;;;;;;;;;5052397;28;20374;-75
2022/09/29 00:34:37;;;;;;;;;;;;;;;;;;5047328;28;19913;-75
2022/09/29 00:37:03;;;;;;;;;;;;;;;;;;5034262;28;19913;-75
2022/09/29 00:39:28;;;;;;;;;;;;;;;;;;5058454;28;20384;-73
2022/09/29 00:41:54;;;;;;;;;;;;;;;;;;5007140;28;19939;-77
2022/09/29 00:44:19;;;;;;;;;;;;;;;;;;5055983;28;20478;-75
2022/09/29 00:46:45;;;;;;;;;;;;;;;;;;5028852;28;19917;-74
2022/09/29 00:49:10;;;;;;;;;;;;;;;;;;5036817;28;20392;-73
2022/09/29 00:51:35;;;;;;;;;;;;;;;;;;5057430;28;19909;-74
2022/09/29 00:54:01;;;;;;;;;;;;;;;;;;5058643;28;19935;-74
2022/09/29 00:56:26;;;;;;;;;;;;;;;;;;5063258;28;19912;-75
2022/09/29 00:58:53;;;;;;;;;;;;;;;;;;5053382;28;19953;-75
2022/09/29 01:01:19;;;;;;;;;;;;;;;;;;5061994;28;19913;-75
2022/09/29 01:03:45;;;;;;;;;;;;;;;;;;5040342;28;19940;-74
2022/09/29 01:06:11;;;;;;;;;;;;;;;;;;5046155;28;19976;-73
2022/09/29 01:08:37;;;;;;;;;;;;;;;;;;5055997;28;19951;-75
2022/09/29 01:11:02;;;;;;;;;;;;;;;;;;5043892;28;20284;-74
2022/09/29 01:13:28;;;;;;;;;;;;;;;;;;5053288;28;19959;-73
2022/09/29 01:15:54;;;;;;;;;;;;;;;;;;5040286;28;20386;-74
2022/09/29 01:18:19;;;;;;;;;;;;;;;;;;5047336;28;19909;-75
2022/09/29 01:20:45;;;;;;;;;;;;;;;;;;5044887;28;20319;-75
2022/09/29 01:23:10;;;;;;;;;;;;;;;;;;5042199;28;20024;-75
2022/09/29 01:25:35;;;;;;;;;;;;;;;;;;5038606;28;19909;-74
2022/09/29 01:28:01;;;;;;;;;;;;;;;;;;5050626;28;19912;-74
2022/09/29 01:30:26;;;;;;;;;;;;;;;;;;5026673;28;20000;-75
2022/09/29 01:32:51;;;;;;;;;;;;;;;;;;5045408;28;19966;-75
2022/09/29 01:35:17;;;;;;;;;;;;;;;;;;5025485;28;19917;-74
2022/09/29 01:37:42;;;;;;;;;;;;;;;;;;5038153;28;19951;-75
2022/09/29 01:40:07;;;;;;;;;;;;;;;;;;5050280;28;20292;-75
2022/09/29 01:42:33;;;;;;;;;;;;;;;;;;5043807;28;19916;-74
2022/09/29 01:44:58;;;;;;;;;;;;;;;;;;5030383;28;19913;-75
2022/09/29 01:47:23;;;;;;;;;;;;;;;;;;5053087;28;20371;-75
2022/09/29 01:49:49;;;;;;;;;;;;;;;;;;5051521;22;19913;-73
2022/09/29 01:52:14;;;;;;;;;;;;;;;;;;5048061;28;19916;-72
2022/09/29 01:54:40;;;;;;;;;;;;;;;;;;5028945;28;19980;-73
2022/09/29 01:57:06;;;;;;;;;;;;;;;;;;5035113;28;19940;-74
2022/09/29 01:59:31;;;;;;;;;;;;;;;;;;5061992;28;19913;-73
2022/09/29 02:01:57;;;;;;;;;;;;;;;;;;5067288;28;19920;-72
2022/09/29 02:04:22;;;;;;;;;;;;;;;;;;5055696;28;20269;-74
2022/09/29 02:06:47;;;;;;;;;;;;;;;;;;5060621;28;19913;-74
2022/09/29 02:09:13;;;;;;;;;;;;;;;;;;5056462;28;19913;-74
2022/09/29 02:11:38;;;;;;;;;;;;;;;;;;5009495;28;19917;-75
2022/09/29 02:14:04;;;;;;;;;;;;;;;;;;5037084;28;19995;-73
2022/09/29 02:16:29;;;;;;;;;;;;;;;;;;5039388;28;20008;-73
2022/09/29 02:18:55;;;;;;;;;;;;;;;;;;5037006;28;19912;-74
2022/09/29 02:21:21;;;;;;;;;;;;;;;;;;5029178;28;19936;-73
2022/09/29 02:23:47;;;;;;;;;;;;;;;;;;5027331;28;20007;-73
2022/09/29 02:26:12;;;;;;;;;;;;;;;;;;5054938;28;20035;-74
2022/09/29 02:28:38;;;;;;;;;;;;;;;;;;5035318;28;19919;-75
2022/09/29 02:31:03;;;;;;;;;;;;;;;;;;5030979;28;19912;-75
2022/09/29 02:33:29;;;;;;;;;;;;;;;;;;5057035;28;19912;-75
2022/09/29 02:35:54;;;;;;;;;;;;;;;;;;5045059;28;19912;-74
2022/09/29 02:38:20;;;;;;;;;;;;;;;;;;5032409;28;19913;-73
2022/09/29 02:40:46;;;;;;;;;;;;;;;;;;5060331;28;19913;-73
2022/09/29 02:43:12;;;;;;;;;;;;;;;;;;5029339;28;19974;-75
2022/09/29 02:45:37;;;;;;;;;;;;;;;;;;5056885;28;19912;-76
2022/09/29 02:48:03;;;;;;;;;;;;;;;;;;5045504;28;19916;-73
2022/09/29 02:50:28;;;;;;;;;;;;;;;;;;5014957;28;19917;-74
2022/09/29 02:52:54;;;;;;;;;;;;;;;;;;5028623;28;19935;-73
2022/09/29 02:55:19;;;;;;;;;;;;;;;;;;5008425;28;19919;-76
2022/09/29 02:57:45;;;;;;;;;;;;;;;;;;5076712;28;19955;-75
2022/09/29 03:00:10;;;;;;;;;;;;;;;;;;5054330;28;19944;-74
2022/09/29 03:02:36;;;;;;;;;;;;;;;;;;5033328;28;19959;-75
2022/09/29 03:05:01;;;;;;;;;;;;;;;;;;5026696;28;19968;-73
2022/09/29 03:07:27;;;;;;;;;;;;;;;;;;5038774;28;19966;-75
2022/09/29 03:09:52;;;;;;;;;;;;;;;;;;5056096;28;20176;-73
2022/09/29 03:12:18;;;;;;;;;;;;;;;;;;5030718;28;19912;-73
2022/09/29 03:14:43;;;;;;;;;;;;;;;;;;5066592;28;19913;-74
2022/09/29 03:17:09;;;;;;;;;;;;;;;;;;5037774;28;19912;-73
2022/09/29 03:19:34;;;;;;;;;;;;;;;;;;5043456;28;19913;-75
2022/09/29 03:22:00;;;;;;;;;;;;;;;;;;5072192;28;19924;-73
2022/09/29 03:24:25;;;;;;;;;;;;;;;;;;5065932;28;19916;-73
2022/09/29 03:26:51;;;;;;;;;;;;;;;;;;5047895;28;20391;-73
2022/09/29 03:29:16;;;;;;;;;;;;;;;;;;5072598;28;19919;-74
2022/09/29 03:31:42;;;;;;;;;;;;;;;;;;5026003;28;20273;-73
2022/09/29 03:34:07;;;;;;;;;;;;;;;;;;5059849;28;19959;-73
2022/09/29 03:36:33;;;;;;;;;;;;;;;;;;5050601;28;19913;-73
2022/09/29 03:38:59;;;;;;;;;;;;;;;;;;5030223;28;20288;-73
2022/09/29 03:41:24;;;;;;;;;;;;;;;;;;5036718;28;19961;-74
2022/09/29 03:43:50;;;;;;;;;;;;;;;;;;5026422;28;20391;-76
2022/09/29 03:46:15;;;;;;;;;;;;;;;;;;5032525;28;19913;-73
2022/09/29 03:48:41;;;;;;;;;;;;;;;;;;5040907;28;19913;-73
2022/09/29 03:51:07;;;;;;;;;;;;;;;;;;5044626;28;19917;-75
2022/09/29 03:53:32;;;;;;;;;;;;;;;;;;5038364;28;20003;-75
2022/09/29 03:55:58;;;;;;;;;;;;;;;;;;5043185;28;19913;-73
2022/09/29 03:58:23;;;;;;;;;;;;;;;;;;5050198;28;19963;-74
2022/09/29 04:00:49;;;;;;;;;;;;;;;;;;5050917;28;19913;-75
2022/09/29 04:03:14;;;;;;;;;;;;;;;;;;5026427;28;19970;-76
2022/09/29 04:05:40;;;;;;;;;;;;;;;;;;5072917;28;19919;-73
2022/09/29 04:08:05;;;;;;;;;;;;;;;;;;5044989;28;19920;-73
2022/09/29 04:10:31;;;;;;;;;;;;;;;;;;5067280;28;19913;-75
2022/09/29 04:12:56;;;;;;;;;;;;;;;;;;5034969;28;19912;-73
2022/09/29 04:15:31;;;;;;;;;;;;;;;;;;5006650;28;20391;-75
2022/09/29 04:17:56;;;;;;;;;;;;;;;;;;5072373;28;19917;-73
2022/09/29 04:20:22;;;;;;;;;;;;;;;;;;5046421;28;20010;-76
2022/09/29 04:22:47;;;;;;;;;;;;;;;;;;5032160;28;19920;-73
2022/09/29 04:25:13;;;;;;;;;;;;;;;;;;5055295;28;20199;-74
2022/09/29 04:27:41;;;;;;;;;;;;;;;;;;5060053;28;19916;-74
2022/09/29 04:30:06;;;;;;;;;;;;;;;;;;5053006;28;19913;-75
2022/09/29 04:32:32;;;;;;;;;;;;;;;;;;5048424;28;19916;-73
2022/09/29 04:34:57;;;;;;;;;;;;;;;;;;5046307;28;20364;-73
2022/09/29 04:37:23;;;;;;;;;;;;;;;;;;5055815;28;19972;-74
2022/09/29 04:39:49;;;;;;;;;;;;;;;;;;5045501;28;19919;-73
2022/09/29 04:42:15;;;;;;;;;;;;;;;;;;5014250;28;19917;-73
2022/09/29 04:44:40;;;;;;;;;;;;;;;;;;5023727;28;20399;-76
2022/09/29 04:47:06;;;;;;;;;;;;;;;;;;5063357;28;19924;-74
2022/09/29 04:49:31;;;;;;;;;;;;;;;;;;5042024;28;19958;-73
2022/09/29 04:51:56;;;;;;;;;;;;;;;;;;5076230;28;19917;-74
2022/09/29 04:54:22;;;;;;;;;;;;;;;;;;5035942;28;19966;-75
2022/09/29 04:56:47;;;;;;;;;;;;;;;;;;5070802;28;19920;-74
2022/09/29 04:59:13;;;;;;;;;;;;;;;;;;5056431;28;19998;-73
2022/09/29 05:01:39;;;;;;;;;;;;;;;;;;5045305;28;19913;-75
2022/09/29 05:04:04;;;;;;;;;;;;;;;;;;5056188;28;19948;-74
2022/09/29 05:06:30;;;;;;;;;;;;;;;;;;5038879;28;20372;-74
2022/09/29 05:08:55;;;;;;;;;;;;;;;;;;5064675;28;19962;-73
2022/09/29 05:11:20;;;;;;;;;;;;;;;;;;5044669;28;19919;-74
2022/09/29 05:13:49;;;;;;;;;;;;;;;;;;5064059;28;19912;-75
2022/09/29 05:16:16;;;;;;;;;;;;;;;;;;5072951;28;19913;-75
2022/09/29 05:18:42;;;;;;;;;;;;;;;;;;5053575;28;20512;-74
2022/09/29 05:21:07;;;;;;;;;;;;;;;;;;5047745;28;19999;-73
2022/09/29 05:23:33;;;;;;;;;;;;;;;;;;5041118;28;19916;-76
2022/09/29 05:25:59;;;;;;;;;;;;;;;;;;5030916;28;20371;-75
2022/09/29 05:28:25;;;;;;;;;;;;;;;;;;5036301;28;19912;-73
2022/09/29 05:30:51;;;;;;;;;;;;;;;;;;5008305;28;19920;-74
2022/09/29 05:33:17;;;;;;;;;;;;;;;;;;5039926;28;19952;-75
2022/09/29 05:35:43;;;;;;;;;;;;;;;;;;5028572;28;20616;-75
2022/09/29 05:38:09;;;;;;;;;;;;;;;;;;5038857;28;19908;-74
2022/09/29 05:40:34;;;;;;;;;;;;;;;;;;5031897;28;19945;-74
2022/09/29 05:43:00;;;;;;;;;;;;;;;;;;5046252;28;20393;-73
2022/09/29 05:45:25;;;;;;;;;;;;;;;;;;5046312;28;20322;-75
2022/09/29 05:47:51;;;;;;;;;;;;;;;;;;5037868;28;19919;-76
2022/09/29 05:50:26;;;;;;;;;;;;;;;;;;5067701;28;20249;-73
2022/09/29 05:52:55;;;;;;;;;;;;;;;;;;5049951;28;19912;-74
2022/09/29 05:55:20;;;;;;;;;;;;;;;;;;5053846;28;19940;-76
2022/09/29 05:57:46;;;;;;;;;;;;;;;;;;5059782;28;19920;-74
2022/09/29 06:00:11;;;;;;;;;;;;;;;;;;5051809;28;20079;-73
2022/09/29 06:02:37;;;;;;;;;;;;;;;;;;5032643;28;19923;-74
2022/09/29 06:05:05;;;;;;;;;;;;;;;;;;5027327;28;20259;-72
2022/09/29 06:07:30;;;;;;;;;;;;;;;;;;5037697;28;19943;-74
2022/09/29 06:09:55;;;;;;;;;;;;;;;;;;5041327;28;20275;-73
2022/09/29 06:12:21;;;;;;;;;;;;;;;;;;5049238;28;19940;-75
2022/09/29 06:14:46;;;;;;;;;;;;;;;;;;5022242;28;19913;-76
2022/09/29 06:17:13;;;;;;;;;;;;;;;;;;5055357;28;20406;-74
2022/09/29 06:19:40;;;;;;;;;;;;;;;;;;5026013;28;19909;-76
2022/09/29 06:22:06;;;;;;;;;;;;;;;;;;5037183;28;20410;-75
2022/09/29 06:24:32;;;;;;;;;;;;;;;;;;5033650;28;20527;-76
2022/09/29 06:26:57;;;;;;;;;;;;;;;;;;5011507;28;19959;-76
2022/09/29 06:29:23;;;;;;;;;;;;;;;;;;5054392;28;19920;-73
2022/09/29 06:31:48;;;;;;;;;;;;;;;;;;5029035;28;20371;-74
2022/09/29 06:34:14;;;;;;;;;;;;;;;;;;5061170;28;20294;-75
2022/09/29 06:39:24;;;;;;;;;;;;;;;;;;5047071;28;19971;-78
2022/09/29 06:41:56;;;;;;;;;;;;;;;;;;5049753;28;19936;-77
2022/09/29 06:44:23;;;;;;;;;;;;;;;;;;5060028;28;19913;-79
2022/09/29 06:46:50;;;;;;;;;;;;;;;;;;5032726;28;19971;-78
2022/09/29 06:49:15;;;;;;;;;;;;;;;;;;5050391;28;19913;-77
2022/09/29 06:51:41;;;;;;;;;;;;;;;;;;5031568;28;19917;-78
2022/09/29 06:54:07;;;;;;;;;;;;;;;;;;5060998;28;20375;-77
2022/09/29 06:56:32;;;;;;;;;;;;;;;;;;5048761;28;19916;-78
2022/09/29 06:58:58;;;;;;;;;;;;;;;;;;5092406;28;19918;-79
2022/09/29 07:01:23;;;;;;;;;;;;;;;;;;5072358;28;19988;-80
2022/09/29 07:03:49;;;;;;;;;;;;;;;;;;5061439;28;20325;-75
2022/09/29 07:06:15;;;;;;;;;;;;;;;;;;5026653;28;19913;-73
2022/09/29 07:08:41;;;;;;;;;;;;;;;;;;5045510;28;20343;-73
2022/09/29 07:11:06;;;;;;;;;;;;;;;;;;5027636;28;19939;-75
2022/09/29 07:13:32;;;;;;;;;;;;;;;;;;5008198;28;20343;-74
2022/09/29 07:15:57;;;;;;;;;;;;;;;;;;5028685;28;20015;-73
2022/09/29 07:18:23;;;;;;;;;;;;;;;;;;5012131;28;19913;-75
2022/09/29 07:20:49;;;;;;;;;;;;;;;;;;5022716;28;19912;-75
2022/09/29 07:23:15;;;;;;;;;;;;;;;;;;5046898;28;19923;-73
2022/09/29 07:25:40;;;;;;;;;;;;;;;;;;5032445;28;19979;-74
2022/09/29 07:28:06;;;;;;;;;;;;;;;;;;5033149;28;19912;-75
2022/09/29 07:30:32;;;;;;;;;;;;;;;;;;5035651;28;19917;-74
2022/09/29 07:32:57;;;;;;;;;;;;;;;;;;5053358;28;19999;-76
2022/09/29 07:35:23;;;;;;;;;;;;;;;;;;5036839;28;19912;-75
2022/09/29 07:37:52;;;;;;;;;;;;;;;;;;5030569;28;19927;-75
2022/09/29 07:40:17;;;;;;;;;;;;;;;;;;5011282;28;19913;-74
2022/09/29 07:42:43;;;;;;;;;;;;;;;;;;5027711;28;19981;-74
2022/09/29 07:45:08;;;;;;;;;;;;;;;;;;5012702;28;19920;-74
2022/09/29 07:47:34;;;;;;;;;;;;;;;;;;5030424;28;19913;-74
2022/09/29 07:50:00;;;;;;;;;;;;;;;;;;5039793;22;19939;-73
2022/09/29 07:52:25;;;;;;;;;;;;;;;;;;5054208;28;19939;-74
2022/09/29 07:54:51;;;;;;;;;;;;;;;;;;5038074;28;19928;-73
2022/09/29 07:57:16;;;;;;;;;;;;;;;;;;5038968;28;19943;-71
2022/09/29 07:59:42;;;;;;;;;;;;;;;;;;5056281;28;19913;-71
2022/09/29 08:02:07;;;;;;;;;;;;;;;;;;5026288;28;20019;-71
2022/09/29 08:04:32;;;;;;;;;;;;;;;;;;5018057;28;20379;-73
2022/09/29 08:06:58;;;;;;;;;;;;;;;;;;5025242;28;19913;-73
2022/09/29 08:09:23;;;;;;;;;;;;;;;;;;5046568;28;19945;-73
2022/09/29 08:11:49;;;;;;;;;;;;;;;;;;5019688;28;19963;-73
2022/09/29 08:14:14;;;;;;;;;;;;;;;;;;5019289;28;19916;-73
2022/09/29 08:16:40;;;;;;;;;;;;;;;;;;5019574;28;19913;-73
2022/09/29 08:19:05;;;;;;;;;;;;;;;;;;5019173;28;19917;-74
2022/09/29 08:21:35;;;;;;;;;;;;;;;;;;5035835;28;19971;-72
2022/09/29 08:24:01;;;;;;;;;;;;;;;;;;5053109;28;19921;-72
2022/09/29 08:26:26;;;;;;;;;;;;;;;;;;5030927;28;19917;-72
2022/09/29 08:28:52;;;;;;;;;;;;;;;;;;5035662;28;19959;-72
2022/09/29 08:31:19;;;;;;;;;;;;;;;;;;5035492;28;20384;-72
2022/09/29 08:33:48;;;;;;;;;;;;;;;;;;5002537;28;19909;-73
2022/09/29 08:36:13;;;;;;;;;;;;;;;;;;5035863;28;19913;-72
2022/09/29 08:38:41;;;;;;;;;;;;;;;;;;5053157;28;20344;-72
2022/09/29 08:41:07;;;;;;;;;;;;;;;;;;5019182;28;19913;-72
2022/09/29 08:43:32;;;;;;;;;;;;;;;;;;5018536;28;19923;-72
2022/09/29 08:45:58;;;;;;;;;;;;;;;;;;5047698;28;19923;-72
2022/09/29 08:48:23;;;;;;;;;;;;;;;;;;5002058;28;20371;-72
2022/09/29 08:50:49;;;;;;;;;;;;;;;;;;5030927;28;19943;-73
2022/09/29 08:53:14;;;;;;;;;;;;;;;;;;5046758;28;19909;-73
2022/09/29 08:55:40;;;;;;;;;;;;;;;;;;5036141;28;19936;-73
2022/09/29 08:58:05;;;;;;;;;;;;;;;;;;5060768;28;20314;-73
2022/09/29 09:00:30;;;;;;;;;;;;;;;;;;5036737;28;19919;-73
2022/09/29 09:02:56;;;;;;;;;;;;;;;;;;5034354;28;19924;-71
2022/09/29 09:05:21;;;;;;;;;;;;;;;;;;5018445;28;19915;-72
2022/09/29 09:07:47;;;;;;;;;;;;;;;;;;5018575;28;20334;-72
2022/09/29 09:10:12;;;;;;;;;;;;;;;;;;5034759;28;19995;-71
2022/09/29 09:12:38;;;;;;;;;;;;;;;;;;5018314;28;20429;-72
2022/09/29 09:15:03;;;;;;;;;;;;;;;;;;5034561;28;20007;-72
2022/09/29 09:17:29;;;;;;;;;;;;;;;;;;5013561;28;19928;-72
2022/09/29 09:19:55;;;;;;;;;;;;;;;;;;5052215;28;20007;-71
2022/09/29 09:22:21;;;;;;;;;;;;;;;;;;5034526;28;20343;-71
2022/09/29 09:24:47;;;;;;;;;;;;;;;;;;5034513;28;19913;-71
2022/09/29 09:27:12;;;;;;;;;;;;;;;;;;5034317;28;19924;-71
2022/09/29 09:29:38;;;;;;;;;;;;;;;;;;5017687;28;19912;-71
2022/09/29 09:32:03;;;;;;;;;;;;;;;;;;5034206;28;19913;-72
2022/09/29 09:34:29;;;;;;;;;;;;;;;;;;5047148;28;19956;-71
2022/09/29 09:36:55;;;;;;;;;;;;;;;;;;5018104;28;20284;-71
2022/09/29 09:39:20;;;;;;;;;;;;;;;;;;5034295;28;19961;-71
2022/09/29 09:41:46;;;;;;;;;;;;;;;;;;5034186;28;20339;-72
2022/09/29 09:44:12;;;;;;;;;;;;;;;;;;5052350;28;20385;-71
2022/09/29 09:46:38;;;;;;;;;;;;;;;;;;5033989;28;20010;-71
2022/09/29 09:49:05;;;;;;;;;;;;;;;;;;5001858;28;19912;-72
2022/09/29 09:51:30;;;;;;;;;;;;;;;;;;5016409;28;19925;-73
2022/09/29 09:53:56;;;;;;;;;;;;;;;;;;5001075;28;20256;-73
2022/09/29 09:56:21;;;;;;;;;;;;;;;;;;5035558;28;20372;-73
2022/09/29 09:58:47;;;;;;;;;;;;;;;;;;5004709;28;19963;-74
2022/09/29 10:01:13;;;;;;;;;;;;;;;;;;5027759;28;19921;-74
2022/09/29 10:03:38;;;;;;;;;;;;;;;;;;4999808;28;19916;-73
2022/09/29 10:06:04;;;;;;;;;;;;;;;;;;5040634;28;19913;-73
2022/09/29 10:08:29;;;;;;;;;;;;;;;;;;5051746;28;20380;-73
2022/09/29 10:10:55;;;;;;;;;;;;;;;;;;5051542;28;19913;-73
2022/09/29 10:13:20;;;;;;;;;;;;;;;;;;5033704;28;19909;-73
2022/09/29 10:15:46;;;;;;;;;;;;;;;;;;5033651;28;19986;-73
2022/09/29 10:18:11;;;;;;;;;;;;;;;;;;5033716;28;19912;-73
2022/09/29 10:20:36;;;;;;;;;;;;;;;;;;5033954;28;19955;-71
2022/09/29 10:23:02;;;;;;;;;;;;;;;;;;4999810;28;20284;-74
2022/09/29 10:25:27;;;;;;;;;;;;;;;;;;5017198;28;19919;-74
2022/09/29 10:27:54;;;;;;;;;;;;;;;;;;5051543;28;19913;-73
2022/09/29 10:30:20;;;;;;;;;;;;;;;;;;5051285;28;19920;-74
2022/09/29 10:32:46;;;;;;;;;;;;;;;;;;5017129;28;19919;-74
2022/09/29 10:35:12;;;;;;;;;;;;;;;;;;5017812;28;19912;-75
2022/09/29 10:37:37;;;;;;;;;;;;;;;;;;5035396;28;20294;-73
2022/09/29 10:40:03;;;;;;;;;;;;;;;;;;5010738;28;20020;-73
2022/09/29 10:42:29;;;;;;;;;;;;;;;;;;5025475;28;19923;-73
2022/09/29 10:44:55;;;;;;;;;;;;;;;;;;5014757;28;19916;-74
2022/09/29 10:47:20;;;;;;;;;;;;;;;;;;5040455;28;19982;-74
2022/09/29 10:49:46;;;;;;;;;;;;;;;;;;5051244;28;19913;-74
2022/09/29 10:52:12;;;;;;;;;;;;;;;;;;5046444;28;20011;-84
2022/09/29 10:54:37;;;;;;;;;;;;;;;;;;5042006;28;20307;-75
2022/09/29 10:57:02;;;;;;;;;;;;;;;;;;5049643;28;19920;-75
2022/09/29 10:59:28;;;;;;;;;;;;;;;;;;5007448;28;20003;-74
2022/09/29 11:01:54;;;;;;;;;;;;;;;;;;5030195;28;19913;-74
2022/09/29 11:04:19;;;;;;;;;;;;;;;;;;5046928;28;19913;-75
2022/09/29 11:06:45;;;;;;;;;;;;;;;;;;5007045;28;19913;-74
2022/09/29 11:09:11;;;;;;;;;;;;;;;;;;5068375;28;19924;-74
2022/09/29 11:11:37;;;;;;;;;;;;;;;;;;5041095;28;20372;-74
2022/09/29 11:14:03;;;;;;;;;;;;;;;;;;5028391;28;19920;-73
2022/09/29 11:16:28;;;;;;;;;;;;;;;;;;5057736;28;20678;-74
2022/09/29 11:18:54;;;;;;;;;;;;;;;;;;5041604;28;20007;-73
2022/09/29 11:21:23;;;;;;;;;;;;;;;;;;5036796;28;20260;-73
2022/09/29 11:23:48;;;;;;;;;;;;;;;;;;5059951;28;20014;-75
2022/09/29 11:26:14;;;;;;;;;;;;;;;;;;5047497;28;20007;-74
2022/09/29 11:28:39;;;;;;;;;;;;;;;;;;5049251;28;19912;-74
2022/09/29 11:31:08;;;;;;;;;;;;;;;;;;5055607;28;20305;-74
2022/09/29 11:33:34;;;;;;;;;;;;;;;;;;5069837;28;19920;-75
2022/09/29 11:36:00;;;;;;;;;;;;;;;;;;5061870;28;19924;-75
2022/09/29 11:38:26;;;;;;;;;;;;;;;;;;5062922;28;19917;-74
2022/09/29 11:40:52;;;;;;;;;;;;;;;;;;5050357;28;19943;-75
2022/09/29 11:43:17;;;;;;;;;;;;;;;;;;5004482;28;19921;-75
2022/09/29 11:45:43;;;;;;;;;;;;;;;;;;5014203;28;19913;-75
2022/09/29 11:48:09;;;;;;;;;;;;;;;;;;5034069;28;19940;-75
2022/09/29 11:50:35;;;;;;;;;;;;;;;;;;5023090;28;20376;-74
2022/09/29 11:53:00;;;;;;;;;;;;;;;;;;5047820;28;19912;-75
2022/09/29 11:55:26;;;;;;;;;;;;;;;;;;5048283;28;19924;-74
2022/09/29 11:57:52;;;;;;;;;;;;;;;;;;4989829;28;19916;-76
2022/09/29 12:00:20;;;;;;;;;;;;;;;;;;5036896;28;19932;-74
2022/09/29 12:02:45;;;;;;;;;;;;;;;;;;5041804;28;20342;-74
2022/09/29 12:05:11;;;;;;;;;;;;;;;;;;5035668;28;20303;-76
2022/09/29 12:07:37;;;;;;;;;;;;;;;;;;5057986;28;19970;-75
2022/09/29 12:10:02;;;;;;;;;;;;;;;;;;5056055;28;19913;-74
2022/09/29 12:12:28;;;;;;;;;;;;;;;;;;5050374;28;19913;-74
2022/09/29 12:14:53;;;;;;;;;;;;;;;;;;5033776;28;19913;-74
2022/09/29 12:17:19;;;;;;;;;;;;;;;;;;5050352;28;19995;-75
2022/09/29 12:19:45;;;;;;;;;;;;;;;;;;5008275;28;19934;-75
2022/09/29 12:22:12;;;;;;;;;;;;;;;;;;5046448;28;19927;-75
2022/09/29 12:24:37;;;;;;;;;;;;;;;;;;5047516;28;19913;-75
2022/09/29 12:27:03;;;;;;;;;;;;;;;;;;5039071;28;20003;-75
2022/09/29 12:29:28;;;;;;;;;;;;;;;;;;5051625;28;19913;-74
2022/09/29 12:31:54;;;;;;;;;;;;;;;;;;5017703;28;20402;-75
2022/09/29 12:34:20;;;;;;;;;;;;;;;;;;5062921;28;20394;-75
2022/09/29 12:36:49;;;;;;;;;;;;;;;;;;5020879;28;20012;-77
2022/09/29 12:39:14;;;;;;;;;;;;;;;;;;5050536;28;19913;-82
2022/09/29 12:41:41;;;;;;;;;;;;;;;;;;5040340;28;19966;-76
2022/09/29 12:44:07;;;;;;;;;;;;;;;;;;5045934;28;19917;-74
2022/09/29 12:46:34;;;;;;;;;;;;;;;;;;5046905;28;20338;-76
2022/09/29 12:49:00;;;;;;;;;;;;;;;;;;5038682;28;19920;-75
2022/09/29 12:51:25;;;;;;;;;;;;;;;;;;5020859;28;19934;-75
2022/09/29 12:53:51;;;;;;;;;;;;;;;;;;5040405;28;19935;-75
2022/09/29 12:56:19;;;;;;;;;;;;;;;;;;5019240;28;19912;-74
2022/09/29 12:58:45;;;;;;;;;;;;;;;;;;5032136;28;19912;-75
2022/09/29 13:01:11;;;;;;;;;;;;;;;;;;5002663;28;20341;-75
2022/09/29 13:03:36;;;;;;;;;;;;;;;;;;5051536;28;19960;-75
2022/09/29 13:06:02;;;;;;;;;;;;;;;;;;5014010;28;19971;-75
2022/09/29 13:08:27;;;;;;;;;;;;;;;;;;5026514;28;20380;-73
2022/09/29 13:10:53;;;;;;;;;;;;;;;;;;5067030;28;20271;-73
2022/09/29 13:13:18;;;;;;;;;;;;;;;;;;5019609;28;20304;-75
2022/09/29 13:15:44;;;;;;;;;;;;;;;;;;5030386;28;19913;-75
2022/09/29 13:18:10;;;;;;;;;;;;;;;;;;5032302;28;19920;-75
2022/09/29 13:20:35;;;;;;;;;;;;;;;;;;5051361;28;20226;-75
2022/09/29 13:23:01;;;;;;;;;;;;;;;;;;5029572;28;19919;-75
2022/09/29 13:25:27;;;;;;;;;;;;;;;;;;5037577;28;19912;-75
2022/09/29 13:27:53;;;;;;;;;;;;;;;;;;5065364;28;19934;-76
2022/09/29 13:30:19;;;;;;;;;;;;;;;;;;5027901;28;19913;-75
2022/09/29 13:32:45;;;;;;;;;;;;;;;;;;5033967;28;19924;-74
2022/09/29 13:35:11;;;;;;;;;;;;;;;;;;5037259;28;19913;-76
2022/09/29 13:37:37;;;;;;;;;;;;;;;;;;5049356;28;19916;-73
2022/09/29 13:40:03;;;;;;;;;;;;;;;;;;5008748;28;19968;-73
2022/09/29 13:42:28;;;;;;;;;;;;;;;;;;5042014;28;20042;-73
2022/09/29 13:44:54;;;;;;;;;;;;;;;;;;5066719;28;19952;-74
2022/09/29 13:47:19;;;;;;;;;;;;;;;;;;5019689;28;19913;-75
2022/09/29 13:49:45;;;;;;;;;;;;;;;;;;5065813;28;19913;-72
2022/09/29 13:52:10;;;;;;;;;;;;;;;;;;5085030;23;19928;-75
2022/09/29 13:54:36;;;;;;;;;;;;;;;;;;5077392;28;20243;-75
2022/09/29 13:57:01;;;;;;;;;;;;;;;;;;5084662;28;20387;-75
2022/09/29 13:59:27;;;;;;;;;;;;;;;;;;5088284;28;20007;-74
2022/09/29 14:01:53;;;;;;;;;;;;;;;;;;5062543;28;19938;-75
2022/09/29 14:04:18;;;;;;;;;;;;;;;;;;5063071;28;19916;-75
2022/09/29 14:06:44;;;;;;;;;;;;;;;;;;5086826;28;19908;-75
2022/09/29 14:09:09;;;;;;;;;;;;;;;;;;5078731;28;19912;-74
2022/09/29 14:11:34;;;;;;;;;;;;;;;;;;5068637;28;19920;-75
2022/09/29 14:14:00;;;;;;;;;;;;;;;;;;5066314;28;20415;-75
2022/09/29 14:16:25;;;;;;;;;;;;;;;;;;5067296;28;19940;-74
2022/09/29 14:18:50;;;;;;;;;;;;;;;;;;5075946;28;19938;-74
2022/09/29 14:21:15;;;;;;;;;;;;;;;;;;5069863;28;19912;-75
2022/09/29 14:23:41;;;;;;;;;;;;;;;;;;5055205;28;19916;-75
2022/09/29 14:26:06;;;;;;;;;;;;;;;;;;5062566;28;19912;-76
2022/09/29 14:28:32;;;;;;;;;;;;;;;;;;5061924;28;19920;-74
2022/09/29 14:30:59;;;;;;;;;;;;;;;;;;5055454;28;19919;-74
2022/09/29 14:33:26;;;;;;;;;;;;;;;;;;5051790;28;19928;-74
2022/09/29 14:35:51;;;;;;;;;;;;;;;;;;5064657;28;19917;-74
2022/09/29 14:38:16;;;;;;;;;;;;;;;;;;5056483;28;20224;-74
2022/09/29 14:40:42;;;;;;;;;;;;;;;;;;5057462;28;20276;-74
2022/09/29 14:43:07;;;;;;;;;;;;;;;;;;5067650;28;19916;-74
2022/09/29 14:53:45;;;;;;;;;;;;;;;;;;5055900;28;20007;-75
2022/09/29 14:56:12;;;;;;;;;;;;;;;;;;5066528;28;20351;-73
2022/09/29 14:58:38;;;;;;;;;;;;;;;;;;5058339;28;19945;-75
2022/09/29 15:01:07;;;;;;;;;;;;;;;;;;5067170;28;19979;-74
2022/09/29 15:03:33;;;;;;;;;;;;;;;;;;5053868;28;19917;-74
2022/09/29 15:05:59;;;;;;;;;;;;;;;;;;5063385;28;19920;-74
2022/09/29 15:08:24;;;;;;;;;;;;;;;;;;5060541;28;20347;-74
2022/09/29 15:10:49;;;;;;;;;;;;;;;;;;5074913;28;20383;-75
2022/09/29 15:13:15;;;;;;;;;;;;;;;;;;5053770;28;19936;-75
2022/09/29 15:15:41;;;;;;;;;;;;;;;;;;5084363;28;19916;-75
2022/09/29 15:18:06;;;;;;;;;;;;;;;;;;5062252;28;19958;-75
2022/09/29 15:20:32;;;;;;;;;;;;;;;;;;5063072;28;20417;-74
2022/09/29 15:22:57;;;;;;;;;;;;;;;;;;5055015;28;20391;-74
2022/09/29 15:25:29;;;;;;;;;;;;;;;;;;5067015;28;19913;-74
2022/09/29 15:27:54;;;;;;;;;;;;;;;;;;5041547;28;19913;-74
2022/09/29 15:30:19;;;;;;;;;;;;;;;;;;5089760;28;19969;-75
2022/09/29 15:32:45;;;;;;;;;;;;;;;;;;5072107;28;19913;-75
2022/09/29 15:35:11;;;;;;;;;;;;;;;;;;5075122;28;20331;-75
2022/09/29 15:37:36;;;;;;;;;;;;;;;;;;5069653;28;20371;-75
2022/09/29 15:40:01;;;;;;;;;;;;;;;;;;5060557;28;20278;-75
2022/09/29 15:42:29;;;;;;;;;;;;;;;;;;5044722;28;20272;-74
2022/09/29 15:44:55;;;;;;;;;;;;;;;;;;5069070;28;20363;-75
2022/09/29 15:47:20;;;;;;;;;;;;;;;;;;5055841;28;19924;-75
2022/09/29 15:49:45;;;;;;;;;;;;;;;;;;5087258;28;19913;-74
2022/09/29 15:52:11;;;;;;;;;;;;;;;;;;5064583;28;19917;-75
2022/09/29 15:54:38;;;;;;;;;;;;;;;;;;5066418;28;19912;-75
2022/09/29 15:59:49;;;;;;;;;;;;;;;;;;5061972;28;20179;-75
2022/09/29 16:02:14;;;;;;;;;;;;;;;;;;5060966;28;20273;-79
2022/09/29 16:04:39;;;;;;;;;;;;;;;;;;5068906;28;19915;-79
2022/09/29 16:07:05;;;;;;;;;;;;;;;;;;5056002;28;20342;-79
2022/09/29 16:09:30;;;;;;;;;;;;;;;;;;5066696;28;19924;-79
2022/09/29 16:11:56;;;;;;;;;;;;;;;;;;5062708;28;19912;-79
2022/09/29 16:14:21;;;;;;;;;;;;;;;;;;5058413;28;19920;-79
2022/09/29 16:16:47;;;;;;;;;;;;;;;;;;5068825;28;19955;-79
2022/09/29 16:19:12;;;;;;;;;;;;;;;;;;5058126;28;19954;-79
2022/09/29 16:21:38;;;;;;;;;;;;;;;;;;5065222;28;20368;-78
2022/09/29 16:24:04;;;;;;;;;;;;;;;;;;5063614;28;19916;-78
2022/09/29 16:26:30;;;;;;;;;;;;;;;;;;5058318;28;19963;-79
2022/09/29 16:28:55;;;;;;;;;;;;;;;;;;5069840;28;19913;-79
2022/09/29 16:31:25;;;;;;;;;;;;;;;;;;5059381;28;20394;-80
2022/09/29 16:33:53;;;;;;;;;;;;;;;;;;5063461;28;19916;-80
2022/09/29 16:36:19;;;;;;;;;;;;;;;;;;5053381;28;19913;-79
2022/09/29 16:38:44;;;;;;;;;;;;;;;;;;5069936;28;20353;-79
2022/09/29 16:41:09;;;;;;;;;;;;;;;;;;5055976;28;19919;-80
2022/09/29 16:43:35;;;;;;;;;;;;;;;;;;5047447;28;19921;-79
2022/09/29 16:46:00;;;;;;;;;;;;;;;;;;5064811;28;20042;-80
2022/09/29 16:48:27;;;;;;;;;;;;;;;;;;5058517;28;19913;-79